Time;durP1;ratioP1;P1;durP2;ratioP2;P2;SDS_P1;SDS_P2;PMS_P1;PMS_P2;Temp;Humidity;BMP_temperature;BMP_pressure;BME280_temperature;BME280_humidity;BME280_pressure;Samples;Min_cycle;Max_cycle;Signal;HPM_P1;HPM_P2
2021/08/04 00:02:19;;;;;;;5.97;3.83;;;;;;;19.69;100.00;100224.42;1635774;86;21076;-66
2021/08/04 00:04:45;;;;;;;4.83;3.90;;;;;;;19.68;100.00;100230.77;1632475;85;21183;-65
2021/08/04 00:07:12;;;;;;;5.63;4.30;;;;;;;19.66;100.00;100225.44;1631151;86;21027;-66
2021/08/04 00:09:38;;;;;;;5.83;3.97;;;;;;;19.66;100.00;100226.27;1629159;86;21039;-67
2021/08/04 00:12:06;;;;;;;5.10;4.60;;;;;;;19.71;100.00;100224.73;1629096;86;21039;-66
2021/08/04 00:14:32;;;;;;;6.00;4.20;;;;;;;19.71;100.00;100226.05;1631298;86;21150;-67
2021/08/04 00:17:00;;;;;;;4.70;4.20;;;;;;;19.71;100.00;100230.02;1630695;86;20930;-66
2021/08/04 00:19:26;;;;;;;6.33;3.83;;;;;;;19.68;100.00;100231.30;1630458;86;21078;-66
2021/08/04 00:21:53;;;;;;;6.07;4.10;;;;;;;19.70;100.00;100234.52;1630359;86;21502;-61
2021/08/04 00:24:19;;;;;;;5.23;4.10;;;;;;;19.74;100.00;100238.27;1631540;86;21179;-67
2021/08/04 00:26:46;;;;;;;5.33;4.20;;;;;;;19.77;100.00;100242.25;1629216;86;20944;-66
2021/08/04 00:29:12;;;;;;;9.00;4.53;;;;;;;19.78;100.00;100250.48;1631332;86;21113;-66
2021/08/04 00:31:39;;;;;;;7.73;3.83;;;;;;;19.75;100.00;100253.08;1632236;86;21054;-64
2021/08/04 00:34:05;;;;;;;7.77;4.10;;;;;;;19.73;100.00;100257.01;1629710;86;20980;-67
2021/08/04 00:36:31;;;;;;;5.93;4.37;;;;;;;19.73;100.00;100253.04;1627981;86;20991;-67
2021/08/04 00:38:58;;;;;;;7.93;4.80;;;;;;;19.66;100.00;100258.48;1630801;86;21551;-61
2021/08/04 00:41:25;;;;;;;5.93;5.20;;;;;;;19.59;100.00;100267.91;1627896;86;21130;-66
2021/08/04 00:43:52;;;;;;;7.60;5.07;;;;;;;19.54;100.00;100272.30;1630119;86;21074;-61
2021/08/04 00:46:18;;;;;;;6.10;4.63;;;;;;;19.47;100.00;100268.49;1629253;86;21173;-66
2021/08/04 00:48:45;;;;;;;5.70;4.73;;;;;;;19.44;100.00;100270.33;1630992;86;21356;-67
2021/08/04 00:51:12;;;;;;;6.60;5.03;;;;;;;19.34;100.00;100276.23;1628151;86;21521;-67
2021/08/04 00:53:39;;;;;;;7.47;6.07;;;;;;;19.26;100.00;100278.48;1629275;86;22136;-63
2021/08/04 00:56:08;;;;;;;9.17;5.53;;;;;;;19.23;100.00;100282.40;1629542;86;22471;-67
2021/08/04 00:58:37;;;;;;;6.07;4.90;;;;;;;19.14;100.00;100283.32;1630701;86;21043;-67
2021/08/04 01:01:15;;;;;;;7.90;5.37;;;;;;;18.96;100.00;100294.09;1629484;86;21079;-61
2021/08/04 01:03:44;;;;;;;6.80;4.97;;;;;;;18.89;100.00;100299.52;1632359;86;20996;-60
2021/08/04 01:06:19;;;;;;;7.53;5.90;;;;;;;18.83;100.00;100303.64;1640631;85;21180;-66
2021/08/04 01:08:51;;;;;;;8.67;5.27;;;;;;;18.76;100.00;100306.42;1616019;85;21490;-62
2021/08/04 01:11:18;;;;;;;6.40;4.70;;;;;;;18.79;100.00;100305.13;1639417;85;20971;-67
2021/08/04 01:13:47;;;;;;;7.77;5.00;;;;;;;18.87;100.00;100306.09;1640794;85;21083;-67
2021/08/04 01:16:24;;;;;;;6.87;4.87;;;;;;;18.76;100.00;100310.90;1638602;85;22464;-67
2021/08/04 01:19:05;;;;;;;5.97;4.33;;;;;;;18.72;100.00;100313.20;1640934;85;39243;-61
2021/08/04 01:21:52;;;;;;;7.42;4.97;;;;;;;18.61;100.00;100314.81;1640486;85;21081;-67
2021/08/04 01:24:27;;;;;;;6.93;5.07;;;;;;;18.60;100.00;100316.35;1639355;85;20900;-67
2021/08/04 01:26:54;;;;;;;6.93;5.27;;;;;;;18.53;100.00;100312.55;1642754;85;21010;-68
2021/08/04 01:29:24;;;;;;;7.17;5.37;;;;;;;18.45;100.00;100311.59;1641244;85;21030;-69
2021/08/04 01:31:53;;;;;;;6.33;4.93;;;;;;;18.39;100.00;100307.23;1637655;85;21146;-70
2021/08/04 01:34:19;;;;;;;8.87;5.87;;;;;;;18.41;100.00;100302.02;1633741;85;20960;-70
2021/08/04 01:36:47;;;;;;;7.13;4.90;;;;;;;18.44;100.00;100308.66;1639358;85;21024;-69
2021/08/04 01:39:14;;;;;;;5.57;5.00;;;;;;;18.38;100.00;100307.76;1633959;85;21169;-68
2021/08/04 01:41:41;;;;;;;6.47;4.77;;;;;;;18.31;100.00;100296.53;1639130;85;21106;-69
2021/08/04 01:44:08;;;;;;;6.37;4.63;;;;;;;18.34;100.00;100297.91;1639673;85;21111;-69
2021/08/04 01:46:35;;;;;;;6.40;3.97;;;;;;;18.34;100.00;100296.59;1641226;85;20952;-68
2021/08/04 01:49:04;;;;;;;6.67;4.27;;;;;;;18.38;100.00;100299.05;1614136;85;20970;-69
2021/08/04 01:51:31;;;;;;;6.60;4.40;;;;;;;18.39;100.00;100308.56;1638381;85;22369;-70
2021/08/04 01:53:57;;;;;;;8.70;5.53;;;;;;;18.35;100.00;100317.98;1638168;85;21099;-67
2021/08/04 01:56:25;;;;;;;8.33;5.50;;;;;;;18.42;100.00;100316.81;1641150;85;21212;-67
2021/08/04 01:58:51;;;;;;;8.83;5.90;;;;;;;18.41;100.00;100316.53;1639394;85;21014;-61
2021/08/04 02:01:19;;;;;;;8.03;6.30;;;;;;;18.42;100.00;100316.81;1639802;85;21154;-69
2021/08/04 02:03:46;;;;;;;8.87;6.40;;;;;;;18.36;100.00;100311.66;1611714;87;21166;-70
2021/08/04 02:06:41;;;;;;;7.17;5.63;;;;;;;18.31;100.00;100320.28;1635451;86;20971;-69
2021/08/04 02:09:33;;;;;;;9.37;6.27;;;;;;;18.23;100.00;100320.12;1632333;85;21625;-67
2021/08/04 02:12:07;;;;;;;6.90;5.30;;;;;;;18.18;100.00;100318.70;1633452;85;20936;-69
2021/08/04 02:14:41;;;;;;;7.00;5.37;;;;;;;18.20;100.00;100320.58;1632869;85;21077;-66
2021/08/04 02:17:37;;;;;;;8.00;4.87;;;;;;;18.21;100.00;100324.81;1633231;85;21352;-69
2021/08/04 02:20:16;;;;;;;5.27;4.40;;;;;;;18.23;100.00;100334.63;1633585;85;21019;-68
2021/08/04 02:22:49;;;;;;;9.03;5.57;;;;;;;18.29;100.00;100336.84;1635436;85;21136;-68
2021/08/04 02:25:36;;;;;;;10.53;5.97;;;;;;;18.31;100.00;100344.03;1585025;87;21074;-68
2021/08/04 02:28:05;;;;;;;8.20;5.73;;;;;;;18.32;100.00;100340.34;1635881;86;21137;-69
2021/08/04 02:30:31;;;;;;;11.03;8.67;;;;;;;18.29;100.00;100343.44;1636269;85;21150;-68
2021/08/04 02:32:58;;;;;;;10.00;6.40;;;;;;;18.21;100.00;100341.16;1605738;85;21035;-68
2021/08/04 02:35:25;;;;;;;9.03;5.50;;;;;;;18.17;100.00;100344.78;1605017;87;21150;-65
2021/08/04 02:37:52;;;;;;;9.53;5.90;;;;;;;18.15;100.00;100341.58;1635310;85;21106;-69
2021/08/04 02:40:19;;;;;;;8.67;6.33;;;;;;;18.13;100.00;100348.11;1608297;87;21054;-70
2021/08/04 02:42:46;;;;;;;7.53;5.80;;;;;;;18.16;100.00;100348.98;1634428;85;20924;-68
2021/08/04 02:45:12;;;;;;;5.87;4.20;;;;;;;18.18;100.00;100350.36;1637033;85;21043;-68
2021/08/04 02:47:39;;;;;;;5.20;4.40;;;;;;;18.23;100.00;100348.34;1606649;86;21116;-70
2021/08/04 02:50:07;;;;;;;5.37;3.80;;;;;;;18.30;100.00;100352.19;1634307;85;21194;-64
2021/08/04 02:52:34;;;;;;;5.50;4.27;;;;;;;18.34;100.00;100354.12;1605247;85;20983;-70
2021/08/04 02:55:01;;;;;;;5.93;4.30;;;;;;;18.46;100.00;100354.91;1636382;85;21046;-68
2021/08/04 02:57:29;;;;;;;5.60;3.93;;;;;;;18.63;100.00;100358.93;1632891;85;21055;-61
2021/08/04 02:59:56;;;;;;;6.03;3.57;;;;;;;18.73;100.00;100354.94;1634585;84;21211;-68
2021/08/04 03:02:23;;;;;;;6.03;3.30;;;;;;;18.83;100.00;100351.18;1659159;80;21003;-69
2021/08/04 03:04:49;;;;;;;5.37;3.50;;;;;;;19.10;100.00;100350.09;1627462;86;20917;-69
2021/08/04 03:07:18;;;;;;;5.03;3.87;;;;;;;19.22;100.00;100345.55;1656331;84;20976;-62
2021/08/04 03:09:44;;;;;;;5.07;3.97;;;;;;;19.35;100.00;100347.88;1655523;84;21062;-69
2021/08/04 03:12:11;;;;;;;4.73;3.43;;;;;;;19.48;100.00;100345.47;1656413;84;21172;-68
2021/08/04 03:14:38;;;;;;;4.20;3.20;;;;;;;19.73;100.00;100346.93;1660531;84;20972;-68
2021/08/04 03:17:05;;;;;;;5.77;4.27;;;;;;;20.14;100.00;100354.42;1656226;84;21076;-65
2021/08/04 03:19:32;;;;;;;6.00;5.17;;;;;;;20.56;100.00;100352.61;1655760;84;21031;-67
2021/08/04 03:21:59;;;;;;;12.57;5.90;;;;;;;20.94;100.00;100352.77;1655428;84;20976;-67
2021/08/04 03:24:25;;;;;;;10.50;5.80;;;;;;;21.16;100.00;100357.50;1656274;84;21224;-68
2021/08/04 03:26:51;;;;;;;10.20;6.00;;;;;;;21.59;100.00;100358.44;1627872;86;20964;-69
2021/08/04 03:29:18;;;;;;;12.10;6.43;;;;;;;22.45;100.00;100359.53;1655563;84;21063;-68
2021/08/04 03:31:44;;;;;;;8.40;6.23;;;;;;;23.60;100.00;100355.00;1655976;84;21121;-62
2021/08/04 03:34:11;;;;;;;6.70;5.47;;;;;;;24.74;100.00;100345.97;1655161;84;21024;-66
2021/08/04 03:36:37;;;;;;;6.17;4.97;;;;;;;25.80;100.00;100340.12;1656573;84;21154;-66
2021/08/04 03:39:04;;;;;;;7.62;4.72;;;;;;;26.82;100.00;100330.41;1655727;84;21008;-61
2021/08/04 03:41:30;;;;;;;5.70;4.87;;;;;;;27.92;100.00;100321.13;1656247;84;21046;-68
2021/08/04 03:43:56;;;;;;;7.15;4.92;;;;;;;28.84;100.00;100320.83;1655499;84;21051;-67
2021/08/04 03:46:23;;;;;;;7.15;4.08;;;;;;;29.73;100.00;100329.17;1640482;86;21107;-68
2021/08/04 03:48:50;;;;;;;7.37;4.70;;;;;;;30.55;100.00;100334.41;1656110;84;21620;-68
2021/08/04 03:51:17;;;;;;;5.97;4.35;;;;;;;31.27;100.00;100335.69;1655746;84;20955;-67
2021/08/04 03:53:43;;;;;;;7.83;4.28;;;;;;;31.73;100.00;100335.50;1655813;84;21118;-67
2021/08/04 03:56:10;;;;;;;6.50;4.33;;;;;;;32.16;97.51;100342.08;1655618;84;20904;-67
2021/08/04 03:58:36;;;;;;;5.80;4.80;;;;;;;32.65;87.77;100329.45;1657022;84;21094;-67
2021/08/04 04:01:03;;;;;;;6.70;4.45;;;;;;;32.89;79.96;100335.55;1661183;85;21197;-67
2021/08/04 04:03:30;;;;;;;5.50;4.50;;;;;;;33.03;78.55;100337.41;1682707;83;21082;-67
2021/08/04 04:05:57;;;;;;;6.90;3.72;;;;;;;33.34;74.63;100339.67;1682943;83;21724;-61
2021/08/04 04:08:24;;;;;;;5.75;3.87;;;;;;;33.75;69.39;100346.62;1682053;83;21021;-66
2021/08/04 04:10:52;;;;;;;4.25;3.85;;;;;;;34.23;64.53;100346.42;1683308;83;20970;-66
2021/08/04 04:13:19;;;;;;;4.33;3.92;;;;;;;34.75;58.77;100349.72;1682393;83;21128;-61
2021/08/04 04:15:46;;;;;;;5.42;4.15;;;;;;;35.23;55.16;100352.00;1683202;83;21341;-69
2021/08/04 04:18:13;;;;;;;5.05;3.70;;;;;;;35.71;51.67;100346.08;1682566;83;21037;-63
2021/08/04 04:20:40;;;;;;;6.78;4.40;;;;;;;36.08;49.59;100355.31;1683464;83;21055;-66
2021/08/04 04:23:06;;;;;;;6.45;3.92;;;;;;;36.35;48.14;100352.22;1682763;83;21111;-65
2021/08/04 04:25:33;;;;;;;6.10;4.20;;;;;;;36.71;46.15;100348.33;1683298;83;21202;-62
2021/08/04 04:27:59;;;;;;;7.37;3.90;;;;;;;36.97;44.54;100340.34;1681620;84;20979;-62
2021/08/04 04:30:26;;;;;;;4.28;3.50;;;;;;;37.26;43.08;100340.87;1677608;83;21488;-65
2021/08/04 04:32:53;;;;;;;5.58;3.98;;;;;;;37.61;41.87;100345.36;1684058;83;21490;-63
2021/08/04 04:35:19;;;;;;;6.22;4.20;;;;;;;37.95;41.01;100342.22;1683787;83;21009;-64
2021/08/04 04:37:47;;;;;;;6.45;3.98;;;;;;;38.15;40.19;100346.97;1681768;83;21028;-65
2021/08/04 04:40:14;;;;;;;5.87;4.22;;;;;;;38.23;39.23;100352.75;1683007;83;21032;-64
2021/08/04 04:42:41;;;;;;;5.58;4.40;;;;;;;38.26;39.02;100353.93;1683257;83;21069;-64
2021/08/04 04:45:08;;;;;;;5.92;4.62;;;;;;;38.40;38.76;100354.16;1683440;83;21095;-64
2021/08/04 04:47:35;;;;;;;5.70;4.85;;;;;;;38.48;38.05;100359.11;1683417;83;21684;-64
2021/08/04 04:50:01;;;;;;;5.10;3.92;;;;;;;38.50;37.85;100364.41;1683015;83;21328;-65
2021/08/04 04:52:27;;;;;;;5.15;4.45;;;;;;;38.58;37.30;100369.37;1679965;83;21087;-64
2021/08/04 04:54:54;;;;;;;5.95;4.65;;;;;;;38.67;37.12;100371.22;1683460;83;21058;-64
2021/08/04 04:57:20;;;;;;;5.17;4.00;;;;;;;38.90;36.63;100369.77;1682617;83;21056;-64
2021/08/04 04:59:47;;;;;;;4.67;4.28;;;;;;;39.11;36.18;100371.94;1683490;83;20954;-64
2021/08/04 05:02:13;;;;;;;6.47;4.17;;;;;;;39.31;34.79;100370.59;1667543;83;21101;-63
2021/08/04 05:04:40;;;;;;;4.40;3.92;;;;;;;39.48;34.66;100361.02;1655730;84;21529;-64
2021/08/04 05:07:08;;;;;;;7.15;4.05;;;;;;;39.73;34.42;100369.42;1655970;84;21110;-64
2021/08/04 05:09:37;;;;;;;4.17;3.62;;;;;;;39.96;34.07;100368.41;1656156;84;20956;-64
2021/08/04 05:12:05;;;;;;;6.42;4.50;;;;;;;40.26;33.14;100366.86;1653576;84;21537;-63
2021/08/04 05:14:33;;;;;;;3.90;3.58;;;;;;;40.68;31.99;100369.61;1656021;84;22511;-62
2021/08/04 05:17:02;;;;;;;6.00;3.77;;;;;;;41.17;31.01;100369.56;1653190;84;20975;-64
2021/08/04 05:19:29;;;;;;;4.42;3.67;;;;;;;41.38;28.70;100376.44;1656182;84;21098;-64
2021/08/04 05:21:57;;;;;;;4.25;3.42;;;;;;;41.40;28.28;100378.77;1655520;84;20971;-62
2021/08/04 05:24:24;;;;;;;4.70;3.37;;;;;;;41.30;27.83;100378.38;1656310;84;22411;-63
2021/08/04 05:26:50;;;;;;;4.90;3.60;;;;;;;41.15;28.82;100382.27;1628883;86;21162;-64
2021/08/04 05:29:17;;;;;;;3.87;3.35;;;;;;;41.25;28.25;100378.75;1656126;84;20979;-64
2021/08/04 05:31:43;;;;;;;3.70;3.27;;;;;;;40.99;28.06;100377.73;1642158;85;21036;-63
2021/08/04 05:34:10;;;;;;;4.47;3.45;;;;;;;40.60;28.43;100381.10;1656234;84;21088;-62
2021/08/04 05:36:36;;;;;;;5.12;3.58;;;;;;;40.57;27.82;100379.13;1656286;84;21438;-63
2021/08/04 05:39:03;;;;;;;3.90;3.37;;;;;;;40.57;27.82;100379.13;1655661;84;21117;-63
2021/08/04 05:41:29;;;;;;;4.50;4.10;;;;;;;40.38;28.13;100377.45;1656447;84;21019;-63
2021/08/04 05:43:55;;;;;;;6.00;4.17;;;;;;;40.35;30.10;100379.02;1628749;86;20933;-63
2021/08/04 05:46:22;;;;;;;4.17;3.77;;;;;;;40.75;29.72;100383.30;1655312;84;20940;-61
2021/08/04 05:48:49;;;;;;;4.75;3.60;;;;;;;40.75;29.72;100383.30;1655558;84;21679;-63
2021/08/04 05:51:16;;;;;;;4.55;3.98;;;;;;;41.04;29.53;100375.41;1655304;84;21833;-62
2021/08/04 05:53:42;;;;;;;4.15;3.70;;;;;;;41.23;28.82;100371.53;1655955;84;22448;-63
2021/08/04 05:56:09;;;;;;;3.77;3.37;;;;;;;41.55;28.17;100377.62;1656351;84;21032;-63
2021/08/04 05:58:36;;;;;;;4.15;3.75;;;;;;;41.55;28.17;100377.62;1655812;84;21028;-62
2021/08/04 06:01:03;;;;;;;3.90;3.50;;;;;;;41.67;28.70;100374.48;1655995;84;21631;-62
2021/08/04 06:03:29;;;;;;;4.62;4.10;;;;;;;41.72;27.84;100374.70;1655597;84;21156;-63
2021/08/04 06:05:55;;;;;;;4.25;3.85;;;;;;;41.48;28.16;100383.09;1656149;84;21027;-63
2021/08/04 06:08:22;;;;;;;5.45;3.95;;;;;;;41.46;27.96;100390.93;1655822;84;21031;-61
2021/08/04 06:10:49;;;;;;;5.00;3.80;;;;;;;41.60;28.42;100386.84;1644681;85;21176;-62
2021/08/04 06:13:16;;;;;;;3.75;3.17;;;;;;;41.80;27.93;100379.77;1656339;84;21509;-63
2021/08/04 06:15:42;;;;;;;3.50;3.20;;;;;;;41.93;27.02;100384.86;1655882;84;21169;-62
2021/08/04 06:18:10;;;;;;;4.90;3.75;;;;;;;41.97;26.73;100384.27;1655466;84;21138;-61
2021/08/04 06:20:37;;;;;;;6.65;3.58;;;;;;;41.88;26.33;100382.53;1656211;84;21002;-63
2021/08/04 06:23:03;;;;;;;3.90;3.40;;;;;;;41.94;26.84;100382.31;1656225;86;21080;-63
2021/08/04 06:25:30;;;;;;;3.98;3.50;;;;;;;41.97;27.38;100380.16;1656458;84;22202;-63
2021/08/04 06:27:56;;;;;;;4.22;3.83;;;;;;;42.02;26.92;100381.92;1655621;84;21070;-62
2021/08/04 06:30:23;;;;;;;7.05;3.40;;;;;;;41.99;26.91;100386.81;1655983;84;21155;-62
2021/08/04 06:32:51;;;;;;;4.87;3.22;;;;;;;41.79;27.49;100377.44;1656471;84;21501;-61
2021/08/04 06:35:18;;;;;;;3.95;2.42;;;;;;;41.62;26.26;100383.11;1656435;84;21003;-61
2021/08/04 06:37:44;;;;;;;4.30;2.70;;;;;;;41.52;24.97;100378.41;1656136;84;21051;-61
2021/08/04 06:40:12;;;;;;;5.00;2.55;;;;;;;41.52;24.97;100378.41;1655110;84;21170;-62
2021/08/04 06:42:40;;;;;;;2.42;2.12;;;;;;;41.63;24.21;100380.55;1645459;85;21015;-62
2021/08/04 06:45:08;;;;;;;3.87;2.70;;;;;;;41.66;23.59;100377.62;1656201;84;20920;-62
2021/08/04 06:47:35;;;;;;;4.05;2.30;;;;;;;41.64;24.54;100374.52;1656167;84;21084;-61
2021/08/04 06:50:04;;;;;;;3.50;2.65;;;;;;;41.80;24.74;100370.19;1655677;84;21307;-62
2021/08/04 06:52:31;;;;;;;3.08;2.50;;;;;;;41.79;24.11;100377.44;1655778;84;21194;-62
2021/08/04 06:54:57;;;;;;;2.90;2.10;;;;;;;41.47;22.86;100377.44;1656208;84;21109;-62
2021/08/04 06:57:24;;;;;;;2.05;1.82;;;;;;;41.03;22.93;100377.95;1656765;84;20971;-63
2021/08/04 06:59:51;;;;;;;2.10;1.75;;;;;;;40.85;22.94;100377.88;1654461;84;21604;-62
2021/08/04 07:02:17;;;;;;;1.87;1.50;;;;;;;40.74;22.67;100378.42;1664612;84;21197;-61
2021/08/04 07:04:44;;;;;;;3.67;1.70;;;;;;;40.46;22.57;100382.37;1682905;83;21122;-62
2021/08/04 07:07:14;;;;;;;2.12;1.35;;;;;;;40.17;23.23;100381.45;1683550;83;21482;-63
2021/08/04 07:09:41;;;;;;;2.08;1.50;;;;;;;40.28;22.96;100383.66;1682537;83;21565;-61
2021/08/04 07:12:10;;;;;;;1.90;1.40;;;;;;;40.41;23.86;100381.38;1683559;83;21130;-62
2021/08/04 07:14:41;;;;;;;1.90;1.30;;;;;;;40.44;23.27;100386.08;1683256;83;20933;-61
2021/08/04 07:17:08;;;;;;;4.30;1.75;;;;;;;40.36;22.87;100383.31;1683248;83;21143;-63
2021/08/04 07:19:35;;;;;;;1.80;1.30;;;;;;;40.12;22.80;100381.21;1682558;83;21167;-62
2021/08/04 07:22:03;;;;;;;2.58;1.35;;;;;;;40.16;22.72;100379.87;1682177;83;21634;-63
2021/08/04 07:24:29;;;;;;;2.80;1.55;;;;;;;40.28;22.55;100385.03;1683521;83;21658;-62
2021/08/04 07:26:56;;;;;;;3.55;1.72;;;;;;;40.36;21.89;100385.27;1682890;83;21063;-62
2021/08/04 07:29:23;;;;;;;3.33;1.45;;;;;;;40.30;22.07;100384.83;1682963;83;21163;-60
2021/08/04 07:31:50;;;;;;;3.90;1.32;;;;;;;40.34;22.39;100388.36;1679850;83;22619;-62
2021/08/04 07:34:21;;;;;;;1.62;1.22;;;;;;;40.46;22.30;100387.83;1684269;83;21037;-62
2021/08/04 07:36:45;;;;;;;1.67;1.10;;;;;;;40.46;21.91;100385.91;1682735;83;20973;-62
2021/08/04 07:39:11;;;;;;;2.25;1.20;;;;;;;40.53;21.63;100385.14;1681659;83;20997;-63
2021/08/04 07:41:38;;;;;;;1.50;1.22;;;;;;;40.31;21.17;100385.05;1682762;83;22397;-62
2021/08/04 07:44:05;;;;;;;1.92;1.30;;;;;;;40.29;21.15;100382.49;1683437;83;21453;-62
2021/08/04 07:46:32;;;;;;;1.85;1.30;;;;;;;40.25;21.37;100380.33;1683406;83;21523;-61
2021/08/04 07:48:59;;;;;;;1.77;1.10;;;;;;;40.00;21.65;100382.28;1683293;83;21093;-60
2021/08/04 07:51:26;;;;;;;2.62;1.27;;;;;;;39.75;21.41;100378.61;1683271;83;20889;-60
2021/08/04 07:53:52;;;;;;;1.42;1.15;;;;;;;39.06;21.66;100377.16;1682895;83;21123;-61
2021/08/04 07:56:23;;;;;;;1.65;1.10;;;;;;;38.30;23.56;100388.80;1683452;83;21147;-61
2021/08/04 07:58:50;;;;;;;2.45;1.77;;;;;;;38.20;22.67;100382.06;1683453;83;21004;-61
2021/08/04 08:01:18;;;;;;;3.75;1.15;;;;;;;38.09;23.41;100379.19;1683238;83;20970;-61
2021/08/04 08:03:44;;;;;;;2.87;1.20;;;;;;;38.30;23.36;100380.63;1661748;84;21596;-61
2021/08/04 08:06:12;;;;;;;1.90;1.42;;;;;;;38.12;22.87;100374.37;1641815;86;21103;-60
2021/08/04 08:08:38;;;;;;;2.20;1.20;;;;;;;37.70;23.37;100375.26;1656295;84;20969;-61
2021/08/04 08:11:05;;;;;;;3.37;1.10;;;;;;;37.79;24.08;100380.44;1656228;84;20984;-61
2021/08/04 08:13:32;;;;;;;2.15;1.20;;;;;;;37.90;23.59;100371.12;1654964;86;21012;-61
2021/08/04 08:15:58;;;;;;;2.15;1.35;;;;;;;38.11;23.56;100369.28;1656480;84;21086;-60
2021/08/04 08:18:26;;;;;;;3.35;1.20;;;;;;;38.33;24.15;100375.23;1625932;86;20957;-60
2021/08/04 08:20:55;;;;;;;2.17;1.47;;;;;;;38.65;23.24;100370.23;1656311;84;21060;-61
2021/08/04 08:23:21;;;;;;;2.22;1.25;;;;;;;38.98;22.92;100362.44;1655834;84;21038;-61
2021/08/04 08:25:49;;;;;;;2.27;1.27;;;;;;;39.45;22.72;100359.63;1655504;84;21086;-61
2021/08/04 08:28:17;;;;;;;1.55;1.10;;;;;;;39.84;22.27;100358.00;1656587;84;20969;-60
2021/08/04 08:30:43;;;;;;;2.35;1.00;;;;;;;40.11;21.99;100364.02;1656026;86;21144;-60
2021/08/04 08:33:11;;;;;;;1.52;0.90;;;;;;;40.29;21.92;100361.42;1656130;84;21518;-60
2021/08/04 08:35:38;;;;;;;1.92;1.20;;;;;;;40.58;21.49;100352.80;1655460;84;21082;-60
2021/08/04 08:38:04;;;;;;;1.70;1.00;;;;;;;40.67;21.50;100356.53;1656229;85;21057;-61
2021/08/04 08:40:31;;;;;;;2.92;1.15;;;;;;;40.80;21.12;100354.22;1656585;84;21572;-60
2021/08/04 08:42:58;;;;;;;2.47;1.25;;;;;;;40.87;20.96;100352.09;1656383;84;21227;-61
2021/08/04 08:45:24;;;;;;;1.80;1.35;;;;;;;40.92;21.19;100351.73;1656729;84;21105;-59
2021/08/04 08:47:52;;;;;;;2.58;1.00;;;;;;;41.03;21.75;100347.88;1656034;84;21627;-61
2021/08/04 08:50:25;;;;;;;2.35;1.30;;;;;;;41.09;21.52;100356.47;1656582;84;21148;-61
2021/08/04 08:52:49;;;;;;;2.07;1.10;;;;;;;40.88;21.72;100354.46;1655882;84;21507;-60
2021/08/04 08:55:15;;;;;;;2.62;1.77;;;;;;;40.82;21.50;100353.27;1656340;84;22556;-60
2021/08/04 08:57:42;;;;;;;2.10;1.20;;;;;;;40.76;21.70;100347.38;1655474;84;20960;-60
2021/08/04 09:00:11;;;;;;;4.15;1.50;;;;;;;40.65;21.53;100362.17;1655877;84;21035;-61
2021/08/04 09:02:37;;;;;;;1.70;1.15;;;;;;;40.34;21.48;100350.70;1656192;84;21574;-61
2021/08/04 09:05:07;;;;;;;3.17;1.60;;;;;;;40.30;21.38;100351.28;1633864;86;21552;-61
2021/08/04 09:07:39;;;;;;;3.15;1.12;;;;;;;40.19;21.79;100349.85;1641365;86;21813;-60
2021/08/04 09:10:33;;;;;;;1.85;1.10;;;;;;;40.17;21.62;100351.42;1653997;84;21440;-60
2021/08/04 09:13:03;;;;;;;2.55;1.20;;;;;;;40.11;21.31;100353.69;1640113;85;21044;-61
2021/08/04 09:15:38;;;;;;;1.92;1.22;;;;;;;40.02;21.36;100349.94;1655156;84;21010;-61
2021/08/04 09:18:10;;;;;;;2.70;1.10;;;;;;;39.89;21.30;100348.11;1639862;85;21182;-61
2021/08/04 09:20:53;;;;;;;2.58;1.20;;;;;;;39.82;21.14;100346.70;1656460;84;21814;-60
2021/08/04 09:23:24;;;;;;;2.33;1.25;;;;;;;39.70;21.18;100352.44;1655237;84;20976;-61
2021/08/04 09:26:09;;;;;;;1.95;1.12;;;;;;;39.54;21.11;100346.44;1656074;84;20999;-60
2021/08/04 09:29:03;;;;;;;2.90;1.30;;;;;;;39.38;21.24;100335.22;1655977;86;21474;-61
2021/08/04 09:31:51;;;;;;;2.50;1.80;;;;;;;39.38;21.20;100341.25;1640864;86;21008;-60
2021/08/04 09:34:40;;;;;;;2.80;1.72;;;;;;;39.10;21.96;100337.09;1655424;84;21159;-60
2021/08/04 09:37:12;;;;;;;2.02;1.32;;;;;;;38.63;22.62;100339.06;1642299;86;20968;-60
2021/08/04 09:39:42;;;;;;;3.22;1.40;;;;;;;38.82;22.52;100339.50;1656887;84;20988;-61
2021/08/04 09:42:10;;;;;;;2.65;1.30;;;;;;;39.07;21.31;100335.69;1655269;84;21007;-61
2021/08/04 09:44:57;;;;;;;2.55;1.50;;;;;;;39.25;21.81;100335.31;1656706;84;21086;-61
2021/08/04 09:47:24;;;;;;;1.70;1.40;;;;;;;39.40;21.61;100340.28;1656066;84;21141;-60
2021/08/04 09:49:58;;;;;;;2.45;1.55;;;;;;;39.54;21.70;100334.17;1655323;84;20980;-60
2021/08/04 09:52:26;;;;;;;1.32;1.07;;;;;;;39.69;21.73;100331.77;1644943;86;21099;-60
2021/08/04 09:54:53;;;;;;;2.75;1.37;;;;;;;39.92;21.24;100323.34;1656157;84;21019;-60
2021/08/04 09:57:20;;;;;;;1.40;1.25;;;;;;;39.95;21.00;100325.32;1656358;84;20920;-61
2021/08/04 10:00:09;;;;;;;1.90;1.27;;;;;;;39.99;20.89;100321.25;1605992;87;20969;-60
2021/08/04 10:02:36;;;;;;;1.77;1.10;;;;;;;40.11;20.92;100327.16;1656105;84;21005;-60
2021/08/04 10:05:24;;;;;;;2.12;1.35;;;;;;;40.16;20.70;100323.33;1656231;84;21024;-60
2021/08/04 10:08:04;;;;;;;1.72;1.30;;;;;;;39.98;21.00;100320.47;1656199;84;22412;-60
2021/08/04 10:10:37;;;;;;;;;;;;;;;39.80;20.96;100317.63;1648412;85;20925;-61
2021/08/04 10:13:07;;;;;;;1.65;1.45;;;;;;;39.77;21.16;100317.59;1600889;87;20104;-60
2021/08/04 10:15:43;;;;;;;2.60;1.60;;;;;;;39.78;21.78;100313.14;1656637;84;22433;-61
2021/08/04 10:18:16;;;;;;;3.45;1.45;;;;;;;39.57;21.33;100314.32;1656309;84;21031;-60
2021/08/04 10:20:45;;;;;;;2.22;1.80;;;;;;;39.07;21.63;100320.69;1655934;84;21126;-61
2021/08/04 10:23:15;;;;;;;2.67;1.37;;;;;;;38.81;21.35;100316.14;1643603;86;21174;-61
2021/08/04 10:25:46;;;;;;;1.65;1.30;;;;;;;38.52;21.91;100312.27;1656733;84;21145;-61
2021/08/04 10:28:13;;;;;;;5.10;1.80;;;;;;;38.44;21.99;100307.32;1656480;84;20960;-61
2021/08/04 10:30:40;;;;;;;2.27;1.45;;;;;;;38.45;22.36;100306.97;1655836;84;21071;-61
2021/08/04 10:33:07;;;;;;;1.82;1.40;;;;;;;38.54;21.86;100307.25;1632467;84;20924;-61
2021/08/04 10:35:36;;;;;;;3.83;1.50;;;;;;;38.66;21.76;100298.83;1656272;84;21082;-61
2021/08/04 10:38:07;;;;;;;2.00;1.45;;;;;;;38.80;22.01;100301.73;1656412;84;21822;-61
2021/08/04 10:40:33;;;;;;;5.83;1.60;;;;;;;39.02;21.70;100304.10;1603937;86;20983;-60
2021/08/04 10:43:02;;;;;;;4.85;3.47;;;;;;;39.18;21.61;100295.67;1630549;85;21014;-61
2021/08/04 10:45:31;;;;;;;3.47;1.80;;;;;;;39.14;21.03;100294.86;1656288;84;21055;-61
2021/08/04 10:48:22;;;;;;;2.10;1.50;;;;;;;38.97;21.41;100296.83;1656844;84;21580;-61
2021/08/04 10:51:17;;;;;;;2.20;1.40;;;;;;;38.98;21.98;100292.36;1634072;85;21995;-61
2021/08/04 10:54:13;;;;;;;3.42;1.40;;;;;;;39.14;21.60;100288.83;1656014;84;20971;-60
2021/08/04 10:56:45;;;;;;;2.90;1.25;;;;;;;39.20;21.69;100289.25;1655406;84;27609;-59
2021/08/04 10:59:21;;;;;;;1.92;1.27;;;;;;;39.05;21.26;100294.37;1643032;86;22514;-60
2021/08/04 11:01:50;;;;;;;2.02;1.32;;;;;;;39.00;21.37;100300.17;1656510;84;21113;-59
2021/08/04 11:04:34;;;;;;;2.80;1.45;;;;;;;39.10;21.47;100297.55;1643503;85;21612;-62
2021/08/04 11:07:19;;;;;;;1.62;1.35;;;;;;;39.20;21.42;100296.65;1655655;84;20960;-60
2021/08/04 11:09:53;;;;;;;2.12;1.42;;;;;;;39.19;21.60;100297.23;1656561;84;21090;-60
2021/08/04 11:12:36;;;;;;;2.83;1.52;;;;;;;39.00;21.43;100298.81;1641113;86;21007;-60
2021/08/04 11:15:07;;;;;;;1.82;1.50;;;;;;;38.79;21.67;100285.16;1655114;84;21414;-61
2021/08/04 11:18:12;;;;;;;2.45;1.60;;;;;;;38.73;22.06;100304.94;1654619;84;21596;-60
2021/08/04 11:21:10;;;;;;;3.40;1.92;;;;;;;38.72;21.97;100303.34;1630065;86;21086;-60
2021/08/04 11:23:46;;;;;;;1.70;1.22;;;;;;;38.92;21.75;100306.92;1650146;84;20970;-60
2021/08/04 11:26:36;;;;;;;2.58;1.40;;;;;;;39.17;20.83;100311.81;1644021;86;21006;-61
2021/08/04 11:29:07;;;;;;;1.82;1.20;;;;;;;39.27;20.55;100307.06;1655241;84;21020;-60
2021/08/04 11:31:33;;;;;;;2.08;1.52;;;;;;;39.05;20.46;100310.73;1655634;84;21206;-60
2021/08/04 11:34:29;;;;;;;1.75;1.52;;;;;;;38.82;21.13;100312.25;1644887;86;21562;-61